Terminal Aerodrome Forecast
Issued by NWS

Home | Current Version | Previous Version | Text Only | Print | Product List | Glossary On
Versions: 1 2 3 4 5 6 7 8 9 10 11 12
743
FTUS43 KMQT 250535
TAFSAW
TAF
KSAW 250535Z 2506/2606 36010KT P6SM BKN040
      TEMPO 2509/2513 BKN020
     FM251400 01010KT P6SM FEW200
     FM252300 05005KT P6SM FEW250
     FM260200 16003KT P6SM FEW200=

USA.gov is the U.S. government's official web portal to all federal, state and local government web resources and services.